Terminal Aerodrome Forecast
Issued by NWS

Home | Current Version | Previous Version | Text Only | Print | Product List | Glossary Off
Versions: 1 2 3 4 5 6 7 8 9 10 11 12 13 14 15 16 17 18 19 20 21

000
FTUS43 KPAH 171700
TAFCGI
TAF
KCGI 171721Z 1718/1818 VRB04KT P6SM SCT020 BKN250
      TEMPO 1718/1722 BKN020
     FM180000 03004KT P6SM SCT100 OVC250
     FM180200 03004KT P6SM SCT070 OVC100
     FM180500 VRB03KT P6SM SCT015 OVC070
     FM180800 VRB03KT 3SM -SNPLRA BR SCT005 OVC015
      TEMPO 1808/1811 1SM -FZRASNPL OVC005
     FM181100 VRB03KT 4SM BR OVC010 PROB30 1811/1813 2SM -FZRAPL=

USA.gov is the U.S. government's official web portal to all federal, state and local government web resources and services.